Terminal Aerodrome Forecast
Issued by NWS

Home | Current Version | Previous Version | Text Only | Print | Product List | Glossary On
Versions: 1 2 3 4 5 6 7 8 9 10 11 12 13 14 15 16 17 18 19 20
000
FTUS43 KAPX 122103 AAA
TAFTVC
TAF AMD
KTVC 122103Z 1221/1318 34017G28KT 3SM -SHSN BLSN BKN035
      TEMPO 1221/1301 1SM -SHSN BLSN OVC023
     FM130300 35009KT 4SM -SHSN OVC025
     FM130700 34005KT P6SM -SHSN BKN035
     FM131100 13006KT P6SM OVC030
     FM131400 13003KT 2SM -SN OVC018=

USA.gov is the U.S. government's official web portal to all federal, state and local government web resources and services.